This is the latest recevied weather packets stored in our database for station/object EA4IAJ-12. If no packets are shown the sender has not sent any weather packets the latest 10 day(s).
| Time | Temp. | Humidity | Pressure | Rain* | Wind** | Luminosity | Snow |
|---|---|---|---|---|---|---|---|
| 1777418110 | 16.67° C | 50% | 1001.2 hPa | - | - | - | - |
| 1777417210 | 17.22° C | 49% | 1002.2 hPa | - | - | - | - |
| 1777416309 | 17.22° C | 48% | 1002.3 hPa | - | - | - | - |
| 1777415409 | 17.22° C | 46% | 1003 hPa | - | - | - | - |
| 1777414508 | 17.78° C | 45% | 1003.8 hPa | - | - | - | - |
| 1777413608 | 17.78° C | 44% | 1003.7 hPa | - | - | - | - |
| 1777412719 | 17.78° C | 43% | 1002.9 hPa | - | - | - | - |
| 1777410917 | 17.78° C | 40% | 1003.2 hPa | - | - | - | - |
| 1777410018 | 18.33° C | 39% | 1004 hPa | - | - | - | - |
| 1777409116 | 18.33° C | 38% | 1005.3 hPa | - | - | - | - |
| 1777407315 | 18.89° C | 37% | 1006.4 hPa | - | - | - | - |
| 1777406415 | 18.89° C | 36% | 1006.1 hPa | - | - | - | - |
| 1777405514 | 18.89° C | 35% | 1006.3 hPa | - | - | - | - |
| 1777404614 | 18.89° C | 34% | 1006.2 hPa | - | - | - | - |
| 1777403714 | 18.89° C | 33% | 1006 hPa | - | - | - | - |
| 1777402813 | 19.44° C | 32% | 1006.4 hPa | - | - | - | - |
| 1777401912 | 19.44° C | 31% | 1007 hPa | - | - | - | - |
| 1777401012 | 20° C | 30% | 1008.9 hPa | - | - | - | - |
| 1777399211 | 21.11° C | 28% | 1012.9 hPa | - | - | - | - |
| 1777398311 | 23.89° C | 28% | 1021.3 hPa | - | - | - | - |
| 1777397410 | 24.44° C | 27% | 1023.8 hPa | - | - | - | - |
| 1777396509 | 25° C | 27% | 1025.5 hPa | - | - | - | - |
| 1777395609 | 25° C | 26% | 1025.7 hPa | - | - | - | - |
| 1777394708 | 25° C | 26% | 1026 hPa | - | - | - | - |
| 1777393808 | 27.22° C | 26% | 1033.9 hPa | - | - | - | - |
* Rain since midnight (hover to see other rain measurements)
** Current wind speed in m/s (hover to see current wind gust speed)